Time;durP1;ratioP1;P1;durP2;ratioP2;P2;SDS_P1;SDS_P2;PMS_P1;PMS_P2;Temp;Humidity;BMP_temperature;BMP_pressure;BME280_temperature;BME280_humidity;BME280_pressure;Samples;Min_cycle;Max_cycle;Signal;HPM_P1;HPM_P2
2022/06/05 00:02:01;;;;;;;;;;;19.30;99.90;;;;;;5055273;28;19909;-80
2022/06/05 00:04:31;;;;;;;;;;;19.00;99.90;;;;;;5055325;28;19963;-82
2022/06/05 00:07:15;;;;;;;;;;;18.80;99.90;;;;;;5055228;28;19909;-82
2022/06/05 00:09:54;;;;;;;;;;;18.80;99.90;;;;;;5055138;28;20270;-81
2022/06/05 00:12:23;;;;;;;;;;;18.50;99.90;;;;;;5055119;28;20033;-80
2022/06/05 00:14:48;;;;;;;;;;;18.50;99.90;;;;;;5054995;28;19931;-80
2022/06/05 00:17:16;;;;;;;;;;;18.80;99.90;;;;;;5054901;28;19913;-80
2022/06/05 00:19:43;;;;;;;;;;;19.00;99.90;;;;;;5055190;28;19909;-80
2022/06/05 00:22:09;;;;;;;;;;;19.10;99.90;;;;;;5054924;28;20372;-79
2022/06/05 00:24:34;;;;;;;;;;;19.30;99.90;;;;;;5054828;28;20011;-80
2022/06/05 00:27:05;;;;;;;;;;;19.20;99.90;;;;;;5053523;28;20311;-82
2022/06/05 00:29:54;;;;;;;;;;;19.00;99.90;;;;;;5055103;28;20431;-79
2022/06/05 00:32:19;;;;;;;;;;;18.90;99.90;;;;;;5043988;28;20297;-79
2022/06/05 00:34:45;;;;;;;;;;;18.80;99.90;;;;;;5036821;28;19908;-82
2022/06/05 00:37:16;;;;;;;;;;;18.50;99.90;;;;;;5054363;28;20405;-81
2022/06/05 00:39:45;;;;;;;;;;;18.30;99.90;;;;;;5054765;28;19915;-80
2022/06/05 00:42:13;;;;;;;;;;;18.40;99.90;;;;;;5054450;28;19912;-79
2022/06/05 00:44:38;;;;;;;;;;;18.50;99.90;;;;;;5054556;28;19909;-82
2022/06/05 00:47:05;;;;;;;;;;;18.60;99.90;;;;;;5054437;28;19916;-80
2022/06/05 00:49:48;;;;;;;;;;;18.10;99.90;;;;;;5054346;28;20392;-81
2022/06/05 00:52:15;;;;;;;;;;;17.90;99.90;;;;;;5054432;28;19908;-80
2022/06/05 00:54:41;;;;;;;;;;;18.20;99.90;;;;;;5054257;28;19913;-80
2022/06/05 00:57:10;;;;;;;;;;;18.40;99.90;;;;;;5054164;28;19916;-79
2022/06/05 00:59:37;;;;;;;;;;;18.40;99.90;;;;;;5054312;28;19993;-80
2022/06/05 01:02:03;;;;;;;;;;;18.30;99.90;;;;;;5054259;28;19916;-80
2022/06/05 01:04:31;;;;;;;;;;;18.30;99.90;;;;;;5054230;28;19908;-80
2022/06/05 01:06:56;;;;;;;;;;;18.30;99.90;;;;;;5052855;28;19944;-80
2022/06/05 01:09:22;;;;;;;;;;;18.30;99.90;;;;;;5053568;28;19976;-81
2022/06/05 01:11:48;;;;;;;;;;;18.40;99.90;;;;;;5053941;28;19966;-80
2022/06/05 01:14:22;;;;;;;;;;;18.50;99.90;;;;;;5054171;28;19909;-80
2022/06/05 01:16:57;;;;;;;;;;;18.40;99.90;;;;;;5054003;28;20377;-81
2022/06/05 01:19:22;;;;;;;;;;;17.90;99.90;;;;;;5054338;28;19924;-80
2022/06/05 01:22:06;;;;;;;;;;;17.40;99.90;;;;;;5054064;28;19909;-79
2022/06/05 01:24:41;;;;;;;;;;;17.40;99.90;;;;;;5053815;28;20000;-81
2022/06/05 01:27:10;;;;;;;;;;;17.50;99.90;;;;;;5054069;28;19913;-79
2022/06/05 01:29:43;;;;;;;;;;;17.60;99.90;;;;;;5054092;28;19964;-79
2022/06/05 01:32:12;;;;;;;;;;;17.60;99.90;;;;;;5053753;28;20427;-82
2022/06/05 01:34:51;;;;;;;;;;;17.70;99.90;;;;;;5053737;28;19912;-80
2022/06/05 01:37:20;;;;;;;;;;;18.10;99.90;;;;;;5040504;28;20016;-81
2022/06/05 01:40:01;;;;;;;;;;;18.30;99.90;;;;;;5016001;28;20012;-81
2022/06/05 01:42:31;;;;;;;;;;;18.50;99.90;;;;;;5033130;28;20353;-81
2022/06/05 01:45:02;;;;;;;;;;;18.40;99.90;;;;;;5033541;28;19913;-80
2022/06/05 01:47:39;;;;;;;;;;;18.40;99.90;;;;;;5033956;28;20358;-81
2022/06/05 01:50:05;;;;;;;;;;;18.20;99.90;;;;;;5033646;28;19909;-80
2022/06/05 01:52:37;;;;;;;;;;;18.20;99.90;;;;;;5033500;28;20353;-80
2022/06/05 01:55:05;;;;;;;;;;;17.90;99.90;;;;;;5032203;28;19909;-80
2022/06/05 01:57:33;;;;;;;;;;;17.90;99.90;;;;;;5015726;28;19917;-81
2022/06/05 02:00:13;;;;;;;;;;;18.10;99.90;;;;;;5033795;28;19913;-80
2022/06/05 02:02:42;;;;;;;;;;;18.00;99.90;;;;;;5033509;28;19951;-81
2022/06/05 02:05:28;;;;;;;;;;;17.90;99.90;;;;;;5033470;28;19909;-81
2022/06/05 02:07:58;;;;;;;;;;;17.90;99.90;;;;;;5033146;28;19933;-81
2022/06/05 02:10:30;;;;;;;;;;;17.90;99.90;;;;;;5033383;28;19909;-80
2022/06/05 02:12:57;;;;;;;;;;;17.90;99.90;;;;;;5033422;28;19909;-82
2022/06/05 02:15:23;;;;;;;;;;;17.80;99.90;;;;;;5033359;28;20328;-81
2022/06/05 02:17:50;;;;;;;;;;;17.60;99.90;;;;;;5033538;28;20007;-81
2022/06/05 02:20:16;;;;;;;;;;;17.60;99.90;;;;;;5034001;28;19931;-82
2022/06/05 02:22:43;;;;;;;;;;;17.70;99.90;;;;;;5035954;28;20389;-81
2022/06/05 02:25:10;;;;;;;;;;;17.70;99.90;;;;;;5037138;28;19915;-81
2022/06/05 02:27:36;;;;;;;;;;;17.70;99.90;;;;;;5037110;28;19945;-80
2022/06/05 02:30:03;;;;;;;;;;;17.70;99.90;;;;;;5037101;28;19935;-80
2022/06/05 02:32:28;;;;;;;;;;;17.60;99.90;;;;;;5019428;28;19995;-79
2022/06/05 02:35:00;;;;;;;;;;;17.40;99.90;;;;;;5019283;28;20017;-80
2022/06/05 02:37:38;;;;;;;;;;;17.30;99.90;;;;;;5049547;28;19921;-80
2022/06/05 02:40:28;;;;;;;;;;;17.20;99.90;;;;;;5038694;28;19913;-80
2022/06/05 02:43:12;;;;;;;;;;;17.20;99.90;;;;;;5056899;28;19908;-81
2022/06/05 02:45:56;;;;;;;;;;;17.00;99.90;;;;;;5057095;28;19913;-80
2022/06/05 02:48:34;;;;;;;;;;;17.30;99.90;;;;;;5056913;28;19909;-79
2022/06/05 02:51:13;;;;;;;;;;;17.40;99.90;;;;;;5055303;28;19908;-81
2022/06/05 02:53:55;;;;;;;;;;;17.30;99.90;;;;;;5038671;28;19909;-80
2022/06/05 02:56:21;;;;;;;;;;;17.20;99.90;;;;;;5056536;28;19913;-81
2022/06/05 02:58:47;;;;;;;;;;;17.20;99.90;;;;;;5055116;28;19919;-80
2022/06/05 03:03:57;;;;;;;;;;;17.10;99.90;;;;;;5056208;28;20000;-80
2022/06/05 03:06:22;;;;;;;;;;;17.10;99.90;;;;;;5038402;28;19948;-79
2022/06/05 03:08:48;;;;;;;;;;;17.00;99.90;;;;;;5056447;28;19909;-80
2022/06/05 03:11:14;;;;;;;;;;;17.00;99.90;;;;;;5056261;28;20293;-81
2022/06/05 03:13:39;;;;;;;;;;;16.90;99.90;;;;;;5056258;28;20362;-80
2022/06/05 03:16:07;;;;;;;;;;;17.00;99.90;;;;;;5056175;28;20001;-81
2022/06/05 03:18:33;;;;;;;;;;;16.90;99.90;;;;;;5056060;28;19913;-80
2022/06/05 03:20:58;;;;;;;;;;;17.00;99.90;;;;;;5038150;28;20042;-81
2022/06/05 03:23:25;;;;;;;;;;;16.90;99.90;;;;;;5056111;28;20002;-81
2022/06/05 03:25:50;;;;;;;;;;;16.70;99.90;;;;;;5056042;28;19916;-80
2022/06/05 03:28:16;;;;;;;;;;;16.70;99.90;;;;;;5056001;28;20285;-80
2022/06/05 03:30:42;;;;;;;;;;;16.80;99.90;;;;;;5055840;28;19916;-79
2022/06/05 03:33:08;;;;;;;;;;;16.60;99.90;;;;;;5055534;28;19999;-80
2022/06/05 03:35:37;;;;;;;;;;;16.90;99.90;;;;;;5055804;28;19967;-79
2022/06/05 03:38:04;;;;;;;;;;;16.80;99.90;;;;;;5055266;28;20387;-79
2022/06/05 03:40:30;;;;;;;;;;;16.80;99.90;;;;;;5055799;28;19913;-80
2022/06/05 03:42:56;;;;;;;;;;;16.60;99.90;;;;;;5055698;28;20258;-80
2022/06/05 03:45:21;;;;;;;;;;;16.60;99.90;;;;;;5056188;28;19987;-81
2022/06/05 03:47:47;;;;;;;;;;;16.50;99.90;;;;;;5055599;28;19915;-81
2022/06/05 03:50:14;;;;;;;;;;;16.90;99.90;;;;;;5055542;28;19909;-80
2022/06/05 03:52:41;;;;;;;;;;;16.80;99.90;;;;;;5055712;28;20378;-80
2022/06/05 03:55:07;;;;;;;;;;;16.70;99.90;;;;;;5055490;28;19909;-81
2022/06/05 03:57:33;;;;;;;;;;;16.70;99.90;;;;;;5055346;28;20014;-80
2022/06/05 03:59:58;;;;;;;;;;;16.80;99.90;;;;;;5054103;28;20336;-80
2022/06/05 04:02:25;;;;;;;;;;;16.80;99.90;;;;;;5054052;28;20004;-79
2022/06/05 04:04:52;;;;;;;;;;;16.80;99.90;;;;;;5055373;28;19967;-80
2022/06/05 04:07:18;;;;;;;;;;;16.80;99.90;;;;;;5055240;28;19916;-80
2022/06/05 04:09:43;;;;;;;;;;;16.80;99.90;;;;;;5055393;28;19996;-80
2022/06/05 04:12:09;;;;;;;;;;;16.50;99.90;;;;;;5055212;28;19948;-81
2022/06/05 04:14:34;;;;;;;;;;;16.40;99.90;;;;;;5037228;28;19909;-81
2022/06/05 04:17:00;;;;;;;;;;;16.30;99.90;;;;;;5055054;28;19991;-81
2022/06/05 04:19:26;;;;;;;;;;;16.30;99.90;;;;;;5054934;28;19912;-81
2022/06/05 04:21:51;;;;;;;;;;;16.20;99.90;;;;;;5055179;28;19988;-81
2022/06/05 04:24:17;;;;;;;;;;;16.40;99.90;;;;;;5054899;28;19974;-81
2022/06/05 04:26:43;;;;;;;;;;;16.50;99.90;;;;;;5054867;28;19909;-79
2022/06/05 04:29:09;;;;;;;;;;;16.60;99.90;;;;;;5054789;28;20054;-80
2022/06/05 04:31:35;;;;;;;;;;;16.50;99.90;;;;;;5054726;28;19908;-82
2022/06/05 04:34:02;;;;;;;;;;;16.60;99.90;;;;;;5053435;28;20373;-81
2022/06/05 04:36:28;;;;;;;;;;;16.60;99.90;;;;;;5054436;28;19999;-81
2022/06/05 04:38:54;;;;;;;;;;;16.50;99.90;;;;;;5053009;28;20051;-80
2022/06/05 04:41:20;;;;;;;;;;;16.60;99.90;;;;;;5054890;28;20350;-80
2022/06/05 04:43:46;;;;;;;;;;;16.50;99.90;;;;;;5035731;28;19916;-81
2022/06/05 04:46:12;;;;;;;;;;;16.20;99.90;;;;;;5054679;28;20027;-80
2022/06/05 04:48:38;;;;;;;;;;;16.10;99.90;;;;;;5054396;28;19940;-80
2022/06/05 04:51:04;;;;;;;;;;;16.10;99.90;;;;;;5054349;28;20273;-81
2022/06/05 04:53:30;;;;;;;;;;;16.10;99.90;;;;;;5054259;28;19955;-80
2022/06/05 04:55:56;;;;;;;;;;;16.20;99.90;;;;;;5054263;28;19913;-79
2022/06/05 04:58:21;;;;;;;;;;;16.20;99.90;;;;;;5054177;28;19955;-81
2022/06/05 05:00:47;;;;;;;;;;;16.20;99.90;;;;;;5054404;28;19908;-81
2022/06/05 05:03:12;;;;;;;;;;;16.10;99.90;;;;;;5054276;28;19912;-81
2022/06/05 05:05:38;;;;;;;;;;;16.20;99.90;;;;;;5054331;28;19913;-82
2022/06/05 05:08:03;;;;;;;;;;;16.20;99.90;;;;;;5054080;28;20285;-80
2022/06/05 05:10:29;;;;;;;;;;;16.30;99.90;;;;;;5054078;28;19955;-80
2022/06/05 05:12:55;;;;;;;;;;;16.30;99.90;;;;;;5054042;28;20003;-81
2022/06/05 05:15:20;;;;;;;;;;;16.20;99.90;;;;;;5054056;28;20381;-79
2022/06/05 05:17:46;;;;;;;;;;;16.30;99.90;;;;;;5053885;28;19920;-81
2022/06/05 05:20:12;;;;;;;;;;;16.30;99.90;;;;;;5054123;28;20305;-80
2022/06/05 05:22:38;;;;;;;;;;;16.10;99.90;;;;;;5053910;28;19909;-80
2022/06/05 05:25:05;;;;;;;;;;;16.30;99.90;;;;;;5035949;28;19909;-80
2022/06/05 05:27:31;;;;;;;;;;;16.40;99.90;;;;;;5053696;28;19919;-80
2022/06/05 05:29:57;;;;;;;;;;;16.50;99.90;;;;;;5052262;28;19909;-80
2022/06/05 05:32:22;;;;;;;;;;;16.80;99.90;;;;;;5053682;28;20362;-80
2022/06/05 05:34:48;;;;;;;;;;;16.90;99.90;;;;;;5035811;28;19909;-80
2022/06/05 05:37:14;;;;;;;;;;;17.00;99.90;;;;;;5035366;28;19921;-82
2022/06/05 05:42:23;;;;;;;;;;;17.10;99.90;;;;;;5053398;28;20007;-81
2022/06/05 05:44:51;;;;;;;;;;;17.10;99.90;;;;;;5053539;28;20369;-79
2022/06/05 05:47:18;;;;;;;;;;;17.20;99.90;;;;;;5052225;28;19952;-79
2022/06/05 05:49:43;;;;;;;;;;;17.20;99.90;;;;;;5053482;28;19909;-81
2022/06/05 05:52:09;;;;;;;;;;;17.50;99.90;;;;;;5054008;28;20372;-81
2022/06/05 05:54:36;;;;;;;;;;;17.40;99.90;;;;;;5054356;28;19958;-81
2022/06/05 05:57:02;;;;;;;;;;;17.30;99.90;;;;;;5057654;28;20436;-80
2022/06/05 05:59:28;;;;;;;;;;;17.50;99.90;;;;;;5057553;28;20267;-79
2022/06/05 06:01:53;;;;;;;;;;;17.90;99.90;;;;;;5057710;28;19916;-80
2022/06/05 06:04:19;;;;;;;;;;;17.90;99.90;;;;;;5056192;28;19916;-81
2022/06/05 06:06:46;;;;;;;;;;;17.70;99.90;;;;;;5057440;28;20393;-81
2022/06/05 06:09:11;;;;;;;;;;;17.60;99.90;;;;;;5057348;28;19998;-81
2022/06/05 06:11:37;;;;;;;;;;;17.70;99.90;;;;;;5057281;28;19955;-81
2022/06/05 06:14:03;;;;;;;;;;;17.80;99.90;;;;;;5057347;28;20004;-79
2022/06/05 06:16:28;;;;;;;;;;;17.90;99.90;;;;;;5057301;28;19916;-81
2022/06/05 06:18:55;;;;;;;;;;;17.70;99.90;;;;;;5057189;28;19913;-81
2022/06/05 06:21:20;;;;;;;;;;;18.20;99.90;;;;;;5057155;28;19931;-80
2022/06/05 06:23:46;;;;;;;;;;;18.70;99.90;;;;;;5039260;28;20370;-80
2022/06/05 06:26:12;;;;;;;;;;;18.70;99.90;;;;;;5057292;28;19909;-81
2022/06/05 06:28:37;;;;;;;;;;;18.70;99.90;;;;;;5057144;28;20409;-80
2022/06/05 06:31:04;;;;;;;;;;;18.80;99.90;;;;;;5057153;28;19952;-81
2022/06/05 06:33:30;;;;;;;;;;;19.10;99.90;;;;;;5057081;28;19909;-81
2022/06/05 06:35:59;;;;;;;;;;;19.30;99.90;;;;;;5056717;28;19916;-81
2022/06/05 06:38:24;;;;;;;;;;;19.30;99.90;;;;;;5057038;28;19912;-80
2022/06/05 06:40:56;;;;;;;;;;;19.30;99.90;;;;;;5056947;28;19916;-79
2022/06/05 06:43:22;;;;;;;;;;;19.10;99.90;;;;;;5056975;28;19916;-79
2022/06/05 06:45:47;;;;;;;;;;;19.10;99.90;;;;;;5056736;28;19908;-81
2022/06/05 06:48:13;;;;;;;;;;;19.20;99.90;;;;;;5056578;28;19909;-79
2022/06/05 06:50:38;;;;;;;;;;;19.10;99.90;;;;;;5056844;28;19917;-81
2022/06/05 06:53:04;;;;;;;;;;;19.40;99.90;;;;;;5056577;28;19908;-80
2022/06/05 06:55:32;;;;;;;;;;;19.70;99.90;;;;;;5056584;28;19916;-80
2022/06/05 06:57:58;;;;;;;;;;;19.80;99.90;;;;;;5038545;28;20003;-79
2022/06/05 07:00:23;;;;;;;;;;;20.10;99.90;;;;;;5056683;28;19950;-80
2022/06/05 07:02:49;;;;;;;;;;;20.30;99.90;;;;;;5056836;28;19909;-81
2022/06/05 07:05:14;;;;;;;;;;;20.50;99.90;;;;;;5056425;28;19932;-80
2022/06/05 07:07:40;;;;;;;;;;;20.20;99.90;;;;;;5055333;28;19913;-79
2022/06/05 07:10:06;;;;;;;;;;;20.20;99.90;;;;;;5056274;28;19909;-81
2022/06/05 07:12:36;;;;;;;;;;;19.90;99.90;;;;;;5056560;28;19916;-81
2022/06/05 07:15:03;;;;;;;;;;;20.10;99.90;;;;;;5056227;28;19920;-80
2022/06/05 07:17:29;;;;;;;;;;;20.60;99.90;;;;;;5056139;28;19921;-81
2022/06/05 07:19:54;;;;;;;;;;;20.80;99.90;;;;;;5056135;28;20292;-80
2022/06/05 07:22:20;;;;;;;;;;;21.20;99.90;;;;;;5054798;28;19916;-79
2022/06/05 07:24:45;;;;;;;;;;;21.50;99.90;;;;;;5056046;28;20328;-82
2022/06/05 07:27:11;;;;;;;;;;;21.90;99.90;;;;;;5055954;28;19919;-81
2022/06/05 07:29:36;;;;;;;;;;;22.20;99.90;;;;;;5055981;28;20366;-81
2022/06/05 07:32:02;;;;;;;;;;;22.80;99.90;;;;;;5056212;28;19909;-81
2022/06/05 07:34:28;;;;;;;;;;;23.30;99.90;;;;;;5055844;28;20318;-80
2022/06/05 07:36:53;;;;;;;;;;;23.00;99.90;;;;;;5055598;28;20012;-80
2022/06/05 07:39:19;;;;;;;;;;;22.50;99.90;;;;;;5037840;28;19912;-81
2022/06/05 07:41:44;;;;;;;;;;;21.90;99.90;;;;;;5055753;28;19909;-81
2022/06/05 07:44:10;;;;;;;;;;;21.70;99.90;;;;;;5055639;28;19916;-79
2022/06/05 07:46:36;;;;;;;;;;;21.60;99.90;;;;;;5055673;28;19916;-79
2022/06/05 07:49:02;;;;;;;;;;;21.50;99.90;;;;;;5055573;28;19908;-81
2022/06/05 07:54:27;;;;;;;;;;;20.80;99.90;;;;;;5055463;28;19916;-81
2022/06/05 07:56:57;;;;;;;;;;;20.40;99.90;;;;;;5055635;28;20365;-80
2022/06/05 07:59:23;;;;;;;;;;;20.30;99.90;;;;;;5055883;28;20377;-81
2022/06/05 08:01:49;;;;;;;;;;;20.60;99.90;;;;;;5054085;28;19955;-81
2022/06/05 08:04:15;;;;;;;;;;;21.20;99.90;;;;;;5055307;28;19944;-81
2022/06/05 08:06:40;;;;;;;;;;;21.40;99.90;;;;;;5055465;28;19971;-81
2022/06/05 08:09:07;;;;;;;;;;;21.60;99.90;;;;;;5055339;28;20385;-80
2022/06/05 08:11:32;;;;;;;;;;;21.80;99.90;;;;;;5055090;28;20357;-81
2022/06/05 08:13:59;;;;;;;;;;;21.60;99.90;;;;;;5055071;28;19909;-81
2022/06/05 08:16:24;;;;;;;;;;;21.60;99.90;;;;;;5055321;28;19909;-80
2022/06/05 08:18:52;;;;;;;;;;;22.00;99.90;;;;;;5054944;28;20388;-80
2022/06/05 08:21:19;;;;;;;;;;;22.40;99.90;;;;;;5054941;28;19909;-80
2022/06/05 08:23:45;;;;;;;;;;;23.20;99.90;;;;;;5054860;28;19931;-81
2022/06/05 08:26:10;;;;;;;;;;;24.10;97.40;;;;;;5054943;28;19992;-80
2022/06/05 08:28:36;;;;;;;;;;;25.50;95.40;;;;;;5054888;28;20313;-81
2022/06/05 08:31:02;;;;;;;;;;;25.30;92.60;;;;;;5054773;28;19915;-79
2022/06/05 08:33:28;;;;;;;;;;;24.50;93.00;;;;;;5054730;28;19954;-80
2022/06/05 08:35:53;;;;;;;;;;;23.40;95.90;;;;;;5054483;28;19908;-80
2022/06/05 08:41:27;;;;;;;;;;;23.10;96.50;;;;;;5054540;28;19916;-81
2022/06/05 08:43:59;;;;;;;;;;;24.00;96.00;;;;;;5036349;28;19909;-81
2022/06/05 08:46:26;;;;;;;;;;;25.10;93.70;;;;;;5054355;28;19909;-81
2022/06/05 08:49:03;;;;;;;;;;;26.20;91.50;;;;;;5054533;28;19913;-80
2022/06/05 08:51:28;;;;;;;;;;;25.20;90.10;;;;;;5054487;28;20388;-81
2022/06/05 08:53:56;;;;;;;;;;;24.00;91.80;;;;;;5054277;28;20004;-80
2022/06/05 08:56:31;;;;;;;;;;;23.20;93.70;;;;;;5054294;28;19922;-81
2022/06/05 08:59:01;;;;;;;;;;;23.20;93.90;;;;;;5054426;28;20004;-81
2022/06/05 09:01:45;;;;;;;;;;;23.70;93.50;;;;;;5054445;28;19944;-81
2022/06/05 09:04:29;;;;;;;;;;;24.10;91.60;;;;;;5054148;28;20313;-81
2022/06/05 09:06:57;;;;;;;;;;;23.60;91.60;;;;;;5054091;28;19908;-81
2022/06/05 09:09:25;;;;;;;;;;;23.50;91.40;;;;;;5054043;28;20011;-80
2022/06/05 09:12:08;;;;;;;;;;;24.60;90.10;;;;;;5054057;28;19915;-80
2022/06/05 09:14:47;;;;;;;;;;;26.40;84.70;;;;;;5054220;28;20320;-80
2022/06/05 09:17:14;;;;;;;;;;;26.70;79.40;;;;;;5054087;28;19909;-82
2022/06/05 09:19:41;;;;;;;;;;;25.80;79.80;;;;;;5053962;28;19951;-80
2022/06/05 09:22:18;;;;;;;;;;;25.30;79.80;;;;;;5053744;28;19909;-80
2022/06/05 09:25:03;;;;;;;;;;;24.60;82.50;;;;;;5053792;28;19959;-82
2022/06/05 09:27:40;;;;;;;;;;;26.30;79.40;;;;;;5035805;28;19913;-80
2022/06/05 09:30:11;;;;;;;;;;;26.80;76.80;;;;;;5053426;28;20012;-80
2022/06/05 09:33:09;;;;;;;;;;;27.90;75.50;;;;;;5053706;28;19931;-81
2022/06/05 09:35:36;;;;;;;;;;;26.60;73.50;;;;;;5009412;28;19909;-80
2022/06/05 09:38:07;;;;;;;;;;;25.10;76.00;;;;;;5053105;28;20400;-82
2022/06/05 09:40:37;;;;;;;;;;;25.30;77.30;;;;;;5051980;28;20292;-80
2022/06/05 09:43:14;;;;;;;;;;;26.20;72.40;;;;;;5054027;28;19908;-81
2022/06/05 09:45:40;;;;;;;;;;;27.10;70.40;;;;;;5053718;28;19909;-81
2022/06/05 09:48:06;;;;;;;;;;;28.50;69.10;;;;;;5053791;28;19909;-81
2022/06/05 09:50:31;;;;;;;;;;;28.40;65.10;;;;;;5053495;28;19912;-81
2022/06/05 09:52:57;;;;;;;;;;;27.70;66.20;;;;;;5053465;28;19909;-82
2022/06/05 09:55:22;;;;;;;;;;;27.30;68.30;;;;;;5053464;28;19913;-81
2022/06/05 10:00:49;;;;;;;;;;;27.00;66.50;;;;;;5053198;28;19916;-81
2022/06/05 10:03:17;;;;;;;;;;;28.30;65.40;;;;;;5053398;28;19916;-79
2022/06/05 10:05:45;;;;;;;;;;;29.20;62.90;;;;;;5053596;28;20385;-80
2022/06/05 10:08:17;;;;;;;;;;;30.40;60.10;;;;;;5053360;28;19978;-81
2022/06/05 10:10:45;;;;;;;;;;;30.60;58.00;;;;;;5053431;28;19908;-81
2022/06/05 10:13:11;;;;;;;;;;;31.80;57.30;;;;;;5053238;28;19951;-81
2022/06/05 10:15:50;;;;;;;;;;;32.50;54.60;;;;;;5053289;28;19908;-80
2022/06/05 10:18:27;;;;;;;;;;;30.40;55.40;;;;;;5053298;28;19912;-82
2022/06/05 10:20:56;;;;;;;;;;;29.20;57.70;;;;;;5053307;28;20008;-80
2022/06/05 10:23:25;;;;;;;;;;;28.90;58.80;;;;;;5053158;28;19979;-81
2022/06/05 10:26:06;;;;;;;;;;;27.90;58.60;;;;;;5053063;28;19909;-80
2022/06/05 10:28:35;;;;;;;;;;;27.60;60.50;;;;;;5053085;28;20448;-81
2022/06/05 10:31:04;;;;;;;;;;;28.20;58.40;;;;;;5053023;28;19913;-81
2022/06/05 10:33:39;;;;;;;;;;;28.20;57.20;;;;;;5053216;28;20452;-81
2022/06/05 10:36:04;;;;;;;;;;;27.70;57.40;;;;;;5052984;28;19909;-81
2022/06/05 10:38:33;;;;;;;;;;;28.80;58.30;;;;;;5053098;28;20400;-81
2022/06/05 10:41:03;;;;;;;;;;;29.40;56.70;;;;;;5054611;28;20267;-81
2022/06/05 10:43:30;;;;;;;;;;;30.10;55.80;;;;;;5057385;28;20369;-81
2022/06/05 10:45:58;;;;;;;;;;;29.70;57.30;;;;;;5056698;28;19908;-80
2022/06/05 10:48:24;;;;;;;;;;;31.00;55.80;;;;;;5056649;28;19916;-80
2022/06/05 10:50:58;;;;;;;;;;;30.60;55.60;;;;;;5056618;28;19909;-80
2022/06/05 10:53:29;;;;;;;;;;;32.00;54.80;;;;;;5056618;28;20388;-82
2022/06/05 10:56:12;;;;;;;;;;;30.90;53.40;;;;;;5056593;28;20269;-80
2022/06/05 10:58:41;;;;;;;;;;;30.40;54.50;;;;;;5056651;28;20306;-82
2022/06/05 11:01:12;;;;;;;;;;;29.40;55.20;;;;;;5056739;28;20264;-82
2022/06/05 11:03:41;;;;;;;;;;;28.10;57.20;;;;;;5056487;28;19909;-81
2022/06/05 11:06:18;;;;;;;;;;;30.30;56.30;;;;;;5038544;28;19916;-80
2022/06/05 11:08:44;;;;;;;;;;;31.30;54.10;;;;;;5056560;28;19916;-81
2022/06/05 11:14:03;;;;;;;;;;;29.50;54.00;;;;;;5056247;28;19916;-82
2022/06/05 11:16:32;;;;;;;;;;;29.50;54.90;;;;;;5056233;28;19916;-80
2022/06/05 11:19:01;;;;;;;;;;;30.60;53.90;;;;;;5056251;28;19913;-82
2022/06/05 11:21:27;;;;;;;;;;;30.90;52.00;;;;;;5056116;28;19909;-82
2022/06/05 11:23:54;;;;;;;;;;;30.20;50.50;;;;;;5056339;28;19916;-81
2022/06/05 11:26:21;;;;;;;;;;;30.40;51.40;;;;;;5056065;28;20369;-81
2022/06/05 11:29:10;;;;;;;;;;;30.80;50.60;;;;;;5056168;28;20349;-82
2022/06/05 11:31:54;;;;;;;;;;;29.40;52.80;;;;;;5055910;28;20029;-81
2022/06/05 11:34:36;;;;;;;;;;;27.70;54.50;;;;;;5056128;28;19956;-81
2022/06/05 11:37:20;;;;;;;;;;;27.10;56.50;;;;;;5055802;28;19950;-80
2022/06/05 11:40:04;;;;;;;;;;;27.50;55.50;;;;;;5056295;28;19920;-81
2022/06/05 11:42:41;;;;;;;;;;;27.70;55.40;;;;;;5055823;28;19909;-80
2022/06/05 11:45:06;;;;;;;;;;;28.50;55.30;;;;;;5055836;28;19909;-81
2022/06/05 11:47:51;;;;;;;;;;;29.70;53.90;;;;;;5055692;28;19916;-80
2022/06/05 11:50:16;;;;;;;;;;;30.10;52.90;;;;;;5055577;28;19948;-81
2022/06/05 11:52:54;;;;;;;;;;;30.40;52.70;;;;;;5055088;28;19940;-80
2022/06/05 11:55:50;;;;;;;;;;;28.90;53.50;;;;;;5055597;28;19909;-80
2022/06/05 11:58:38;;;;;;;;;;;29.20;53.00;;;;;;4984895;28;19946;-81
2022/06/05 12:01:08;;;;;;;;;;;31.30;51.40;;;;;;5017719;28;20003;-81
2022/06/05 12:03:42;;;;;;;;;;;31.30;50.80;;;;;;5055424;28;19957;-81
2022/06/05 12:06:14;;;;;;;;;;;30.50;49.70;;;;;;5055466;28;19909;-81
2022/06/05 12:08:42;;;;;;;;;;;29.90;50.90;;;;;;5055253;28;19913;-81
2022/06/05 12:11:23;;;;;;;;;;;30.00;50.10;;;;;;5055333;28;19909;-80
2022/06/05 12:13:48;;;;;;;;;;;30.00;50.00;;;;;;5053915;28;19916;-81
2022/06/05 12:16:20;;;;;;;;;;;28.60;51.80;;;;;;5037199;28;19908;-80
2022/06/05 12:18:49;;;;;;;;;;;28.30;53.10;;;;;;5055246;28;20288;-80
2022/06/05 12:21:26;;;;;;;;;;;27.90;53.40;;;;;;5055084;28;20289;-80
2022/06/05 12:23:57;;;;;;;;;;;28.00;53.90;;;;;;5054977;28;19912;-81
2022/06/05 12:26:33;;;;;;;;;;;30.10;53.10;;;;;;5055339;28;19956;-81
2022/06/05 12:29:19;;;;;;;;;;;32.30;50.60;;;;;;5054764;28;19909;-82
2022/06/05 12:31:53;;;;;;;;;;;33.10;48.80;;;;;;5036861;28;19916;-82
2022/06/05 12:34:39;;;;;;;;;;;31.10;48.90;;;;;;5054778;28;20353;-82
2022/06/05 12:37:23;;;;;;;;;;;29.40;51.00;;;;;;5053973;28;19921;-82
2022/06/05 12:39:52;;;;;;;;;;;29.20;52.80;;;;;;5054680;28;19919;-80
2022/06/05 12:42:24;;;;;;;;;;;29.20;50.90;;;;;;5036172;28;20380;-82
2022/06/05 12:44:55;;;;;;;;;;;28.20;52.50;;;;;;5054874;28;19909;-80
2022/06/05 12:47:35;;;;;;;;;;;27.20;53.60;;;;;;5036969;28;19916;-79
2022/06/05 12:50:04;;;;;;;;;;;26.40;54.50;;;;;;5055878;28;19955;-81
2022/06/05 12:52:48;;;;;;;;;;;25.80;55.80;;;;;;5056356;28;19915;-80
2022/06/05 12:55:17;;;;;;;;;;;25.80;56.60;;;;;;5038533;28;20335;-80
2022/06/05 12:57:46;;;;;;;;;;;25.50;57.60;;;;;;5056135;28;19948;-80
2022/06/05 13:00:31;;;;;;;;;;;25.80;58.00;;;;;;5055399;28;19908;-81
2022/06/05 13:03:03;;;;;;;;;;;27.60;56.70;;;;;;5054460;28;19909;-81
2022/06/05 13:05:30;;;;;;;;;;;30.50;53.40;;;;;;5053524;28;19915;-80
2022/06/05 13:07:56;;;;;;;;;;;30.70;49.60;;;;;;5054640;28;19915;-80
2022/06/05 13:10:28;;;;;;;;;;;30.00;49.80;;;;;;5054710;28;19909;-82
2022/06/05 13:13:23;;;;;;;;;;;30.00;49.10;;;;;;5054801;28;19991;-81
2022/06/05 13:15:54;;;;;;;;;;;29.90;49.70;;;;;;5035718;28;19915;-81
2022/06/05 13:18:43;;;;;;;;;;;27.80;51.80;;;;;;5054157;28;19959;-80
2022/06/05 13:21:12;;;;;;;;;;;27.10;52.10;;;;;;5016474;28;19916;-81
2022/06/05 13:23:40;;;;;;;;;;;26.90;52.00;;;;;;5054207;28;19996;-80
2022/06/05 13:26:21;;;;;;;;;;;27.20;52.20;;;;;;5054110;28;19912;-80
2022/06/05 13:29:05;;;;;;;;;;;26.80;51.70;;;;;;5054191;28;19909;-81
2022/06/05 13:32:00;;;;;;;;;;;26.30;51.80;;;;;;5035881;28;19909;-81
2022/06/05 13:34:37;;;;;;;;;;;25.80;52.50;;;;;;4982412;28;19910;-81
2022/06/05 13:37:12;;;;;;;;;;;26.30;53.60;;;;;;5053611;28;19924;-80
2022/06/05 13:39:44;;;;;;;;;;;27.10;52.20;;;;;;5053632;28;20011;-80
2022/06/05 13:42:10;;;;;;;;;;;28.50;50.10;;;;;;5053592;28;19958;-81
2022/06/05 13:44:36;;;;;;;;;;;27.60;51.30;;;;;;5053660;28;19909;-81
2022/06/05 13:47:04;;;;;;;;;;;26.90;52.20;;;;;;5053613;28;20362;-80
2022/06/05 13:49:36;;;;;;;;;;;25.80;52.40;;;;;;5053791;28;19908;-81
2022/06/05 13:52:20;;;;;;;;;;;24.90;52.50;;;;;;5053584;28;20426;-80
2022/06/05 13:54:54;;;;;;;;;;;24.50;53.90;;;;;;5053654;28;19908;-80
2022/06/05 13:57:20;;;;;;;;;;;24.60;52.60;;;;;;5053484;28;19913;-81
2022/06/05 13:59:56;;;;;;;;;;;26.10;52.00;;;;;;5053499;28;20258;-82
2022/06/05 14:02:28;;;;;;;;;;;28.00;50.20;;;;;;5053555;28;19912;-82
2022/06/05 14:04:57;;;;;;;;;;;29.00;47.80;;;;;;5053458;28;19915;-80
2022/06/05 14:07:24;;;;;;;;;;;27.50;48.80;;;;;;5053391;28;19967;-81
2022/06/05 14:09:51;;;;;;;;;;;27.90;49.30;;;;;;5053277;28;19912;-80
2022/06/05 14:12:25;;;;;;;;;;;29.40;47.70;;;;;;5053433;28;19944;-81
2022/06/05 14:14:51;;;;;;;;;;;30.30;46.30;;;;;;5053269;28;19909;-80
2022/06/05 14:17:27;;;;;;;;;;;29.50;45.90;;;;;;5057044;28;19955;-80
2022/06/05 14:19:55;;;;;;;;;;;29.70;46.40;;;;;;5057471;28;19913;-83
2022/06/05 14:22:22;;;;;;;;;;;30.60;43.50;;;;;;5057249;28;20266;-80
2022/06/05 14:24:50;;;;;;;;;;;30.40;42.90;;;;;;5057234;28;19933;-82
2022/06/05 14:27:30;;;;;;;;;;;31.00;43.60;;;;;;5057244;28;19915;-80
2022/06/05 14:29:56;;;;;;;;;;;31.10;42.40;;;;;;5057342;28;19979;-80
2022/06/05 14:32:43;;;;;;;;;;;31.60;43.70;;;;;;5057099;28;20408;-81
2022/06/05 14:35:09;;;;;;;;;;;31.20;42.80;;;;;;5057118;28;20376;-80
2022/06/05 14:37:38;;;;;;;;;;;30.30;43.70;;;;;;5056709;28;19921;-82
2022/06/05 14:40:05;;;;;;;;;;;30.10;43.80;;;;;;5057319;28;19957;-82
2022/06/05 14:42:37;;;;;;;;;;;30.40;45.30;;;;;;5057017;28;19908;-80
2022/06/05 14:45:19;;;;;;;;;;;29.40;45.30;;;;;;5057016;28;19909;-81
2022/06/05 14:48:00;;;;;;;;;;;28.50;45.40;;;;;;5056803;28;19916;-82
2022/06/05 14:50:28;;;;;;;;;;;30.00;46.50;;;;;;5056766;28;19913;-80